sensor_id;sensor_type;location;lat;lon;timestamp;P1;durP1;ratioP1;P2;durP2;ratioP2
20758;SDS011;10539;53.686;9.158;2023-04-24T00:00:11;8.17;;;5.60;;
20758;SDS011;10539;53.686;9.158;2023-04-24T00:02:40;6.43;;;4.87;;
20758;SDS011;10539;53.686;9.158;2023-04-24T00:05:12;7.13;;;5.20;;
20758;SDS011;10539;53.686;9.158;2023-04-24T00:07:39;8.20;;;5.30;;
20758;SDS011;10539;53.686;9.158;2023-04-24T00:10:05;12.17;;;6.00;;
20758;SDS011;10539;53.686;9.158;2023-04-24T00:12:32;8.73;;;5.80;;
20758;SDS011;10539;53.686;9.158;2023-04-24T00:14:57;8.20;;;5.77;;
20758;SDS011;10539;53.686;9.158;2023-04-24T00:17:23;9.03;;;5.60;;
20758;SDS011;10539;53.686;9.158;2023-04-24T00:19:49;7.60;;;5.80;;
20758;SDS011;10539;53.686;9.158;2023-04-24T00:22:27;8.60;;;5.80;;
20758;SDS011;10539;53.686;9.158;2023-04-24T00:24:53;6.70;;;5.30;;
20758;SDS011;10539;53.686;9.158;2023-04-24T00:27:19;9.77;;;6.20;;
20758;SDS011;10539;53.686;9.158;2023-04-24T00:29:45;7.43;;;6.03;;
20758;SDS011;10539;53.686;9.158;2023-04-24T00:32:11;7.83;;;6.13;;
20758;SDS011;10539;53.686;9.158;2023-04-24T00:34:37;7.20;;;5.93;;
20758;SDS011;10539;53.686;9.158;2023-04-24T00:37:02;9.47;;;5.50;;
20758;SDS011;10539;53.686;9.158;2023-04-24T00:39:28;7.63;;;6.13;;
20758;SDS011;10539;53.686;9.158;2023-04-24T00:41:54;10.40;;;6.90;;
20758;SDS011;10539;53.686;9.158;2023-04-24T00:44:21;9.10;;;6.40;;
20758;SDS011;10539;53.686;9.158;2023-04-24T00:46:47;8.67;;;6.30;;
20758;SDS011;10539;53.686;9.158;2023-04-24T00:49:17;8.87;;;6.80;;
20758;SDS011;10539;53.686;9.158;2023-04-24T00:51:44;9.37;;;6.20;;
20758;SDS011;10539;53.686;9.158;2023-04-24T00:54:11;10.03;;;6.90;;
20758;SDS011;10539;53.686;9.158;2023-04-24T00:56:37;8.67;;;6.43;;
20758;SDS011;10539;53.686;9.158;2023-04-24T00:59:03;12.40;;;6.53;;
20758;SDS011;10539;53.686;9.158;2023-04-24T01:01:30;8.40;;;6.07;;
20758;SDS011;10539;53.686;9.158;2023-04-24T01:03:56;9.20;;;6.80;;
20758;SDS011;10539;53.686;9.158;2023-04-24T01:06:22;7.80;;;6.03;;
20758;SDS011;10539;53.686;9.158;2023-04-24T01:08:51;8.60;;;5.70;;
20758;SDS011;10539;53.686;9.158;2023-04-24T01:11:16;8.73;;;6.13;;
20758;SDS011;10539;53.686;9.158;2023-04-24T01:13:43;10.47;;;6.30;;
20758;SDS011;10539;53.686;9.158;2023-04-24T01:16:08;9.37;;;5.93;;
20758;SDS011;10539;53.686;9.158;2023-04-24T01:18:34;7.97;;;5.30;;
20758;SDS011;10539;53.686;9.158;2023-04-24T01:21:01;7.90;;;5.53;;
20758;SDS011;10539;53.686;9.158;2023-04-24T01:23:29;6.20;;;4.83;;
20758;SDS011;10539;53.686;9.158;2023-04-24T01:25:55;6.70;;;5.03;;
20758;SDS011;10539;53.686;9.158;2023-04-24T01:28:21;5.73;;;4.60;;
20758;SDS011;10539;53.686;9.158;2023-04-24T01:30:47;5.80;;;5.00;;
20758;SDS011;10539;53.686;9.158;2023-04-24T01:33:13;5.53;;;4.70;;
20758;SDS011;10539;53.686;9.158;2023-04-24T01:35:39;7.30;;;5.03;;
20758;SDS011;10539;53.686;9.158;2023-04-24T01:38:05;5.53;;;4.03;;
20758;SDS011;10539;53.686;9.158;2023-04-24T01:40:31;6.70;;;4.20;;
20758;SDS011;10539;53.686;9.158;2023-04-24T01:42:58;5.87;;;3.80;;
20758;SDS011;10539;53.686;9.158;2023-04-24T01:45:24;4.13;;;3.67;;
20758;SDS011;10539;53.686;9.158;2023-04-24T01:47:50;6.07;;;4.03;;
20758;SDS011;10539;53.686;9.158;2023-04-24T01:50:16;4.40;;;3.57;;
20758;SDS011;10539;53.686;9.158;2023-04-24T01:52:43;4.13;;;3.37;;
20758;SDS011;10539;53.686;9.158;2023-04-24T01:55:09;4.23;;;3.13;;
20758;SDS011;10539;53.686;9.158;2023-04-24T01:57:35;3.63;;;3.10;;
20758;SDS011;10539;53.686;9.158;2023-04-24T02:00:02;4.13;;;2.80;;
20758;SDS011;10539;53.686;9.158;2023-04-24T02:02:29;3.43;;;2.50;;
20758;SDS011;10539;53.686;9.158;2023-04-24T02:04:56;4.27;;;2.23;;
20758;SDS011;10539;53.686;9.158;2023-04-24T02:07:22;2.30;;;1.97;;
20758;SDS011;10539;53.686;9.158;2023-04-24T02:09:47;2.07;;;1.93;;
20758;SDS011;10539;53.686;9.158;2023-04-24T02:12:14;4.10;;;2.20;;
20758;SDS011;10539;53.686;9.158;2023-04-24T02:14:42;2.97;;;2.50;;
20758;SDS011;10539;53.686;9.158;2023-04-24T02:17:08;2.97;;;2.60;;
20758;SDS011;10539;53.686;9.158;2023-04-24T02:19:34;4.57;;;2.60;;
20758;SDS011;10539;53.686;9.158;2023-04-24T02:22:00;2.40;;;2.20;;
20758;SDS011;10539;53.686;9.158;2023-04-24T02:24:26;3.13;;;2.40;;
20758;SDS011;10539;53.686;9.158;2023-04-24T02:26:51;3.00;;;2.40;;
20758;SDS011;10539;53.686;9.158;2023-04-24T02:29:17;2.63;;;2.37;;
20758;SDS011;10539;53.686;9.158;2023-04-24T02:31:43;2.60;;;2.40;;
20758;SDS011;10539;53.686;9.158;2023-04-24T02:34:08;3.47;;;2.43;;
20758;SDS011;10539;53.686;9.158;2023-04-24T02:36:34;2.93;;;2.63;;
20758;SDS011;10539;53.686;9.158;2023-04-24T02:39:00;3.30;;;2.70;;
20758;SDS011;10539;53.686;9.158;2023-04-24T02:41:26;2.90;;;2.50;;
20758;SDS011;10539;53.686;9.158;2023-04-24T02:43:57;3.20;;;2.90;;
20758;SDS011;10539;53.686;9.158;2023-04-24T02:46:25;3.57;;;2.47;;
20758;SDS011;10539;53.686;9.158;2023-04-24T02:48:51;4.33;;;2.63;;
20758;SDS011;10539;53.686;9.158;2023-04-24T02:51:17;3.90;;;2.20;;
20758;SDS011;10539;53.686;9.158;2023-04-24T02:53:43;2.57;;;2.20;;
20758;SDS011;10539;53.686;9.158;2023-04-24T02:56:08;2.83;;;2.50;;
20758;SDS011;10539;53.686;9.158;2023-04-24T02:58:37;3.27;;;2.50;;
20758;SDS011;10539;53.686;9.158;2023-04-24T03:01:03;2.50;;;2.30;;
20758;SDS011;10539;53.686;9.158;2023-04-24T03:03:30;2.80;;;2.47;;
20758;SDS011;10539;53.686;9.158;2023-04-24T03:05:55;2.83;;;2.40;;
20758;SDS011;10539;53.686;9.158;2023-04-24T03:08:22;2.87;;;2.50;;
20758;SDS011;10539;53.686;9.158;2023-04-24T03:10:48;2.77;;;2.20;;
20758;SDS011;10539;53.686;9.158;2023-04-24T03:13:16;2.60;;;2.20;;
20758;SDS011;10539;53.686;9.158;2023-04-24T03:15:42;2.53;;;2.20;;
20758;SDS011;10539;53.686;9.158;2023-04-24T03:18:07;3.17;;;2.87;;
20758;SDS011;10539;53.686;9.158;2023-04-24T03:20:33;2.57;;;2.17;;
20758;SDS011;10539;53.686;9.158;2023-04-24T03:22:59;3.23;;;2.50;;
20758;SDS011;10539;53.686;9.158;2023-04-24T03:25:25;2.53;;;2.33;;
20758;SDS011;10539;53.686;9.158;2023-04-24T03:27:51;2.43;;;2.10;;
20758;SDS011;10539;53.686;9.158;2023-04-24T03:30:17;2.60;;;2.40;;
20758;SDS011;10539;53.686;9.158;2023-04-24T03:32:42;2.57;;;2.37;;
20758;SDS011;10539;53.686;9.158;2023-04-24T03:35:10;2.87;;;2.50;;
20758;SDS011;10539;53.686;9.158;2023-04-24T03:37:36;3.00;;;2.70;;
20758;SDS011;10539;53.686;9.158;2023-04-24T03:40:02;3.37;;;2.23;;
20758;SDS011;10539;53.686;9.158;2023-04-24T03:42:28;2.87;;;2.57;;
20758;SDS011;10539;53.686;9.158;2023-04-24T03:44:53;3.57;;;2.50;;
20758;SDS011;10539;53.686;9.158;2023-04-24T03:47:19;3.93;;;2.47;;
20758;SDS011;10539;53.686;9.158;2023-04-24T03:49:45;2.60;;;2.40;;
20758;SDS011;10539;53.686;9.158;2023-04-24T03:52:11;3.23;;;2.40;;
20758;SDS011;10539;53.686;9.158;2023-04-24T03:54:36;3.60;;;2.80;;
20758;SDS011;10539;53.686;9.158;2023-04-24T03:57:02;2.47;;;2.20;;
20758;SDS011;10539;53.686;9.158;2023-04-24T03:59:30;2.93;;;2.50;;
20758;SDS011;10539;53.686;9.158;2023-04-24T04:01:55;2.50;;;2.30;;
20758;SDS011;10539;53.686;9.158;2023-04-24T04:04:21;5.30;;;2.63;;
20758;SDS011;10539;53.686;9.158;2023-04-24T04:06:47;3.63;;;3.13;;
20758;SDS011;10539;53.686;9.158;2023-04-24T04:09:13;4.00;;;3.60;;
20758;SDS011;10539;53.686;9.158;2023-04-24T04:11:39;4.60;;;4.20;;
20758;SDS011;10539;53.686;9.158;2023-04-24T04:14:04;5.40;;;4.10;;
20758;SDS011;10539;53.686;9.158;2023-04-24T04:16:30;5.03;;;4.53;;
20758;SDS011;10539;53.686;9.158;2023-04-24T04:18:56;5.03;;;4.53;;
20758;SDS011;10539;53.686;9.158;2023-04-24T04:21:22;5.77;;;5.07;;
20758;SDS011;10539;53.686;9.158;2023-04-24T04:23:47;5.97;;;5.17;;
20758;SDS011;10539;53.686;9.158;2023-04-24T04:26:13;5.40;;;4.90;;
20758;SDS011;10539;53.686;9.158;2023-04-24T04:28:39;5.30;;;4.80;;
20758;SDS011;10539;53.686;9.158;2023-04-24T04:31:06;7.30;;;5.27;;
20758;SDS011;10539;53.686;9.158;2023-04-24T04:33:33;5.80;;;5.20;;
20758;SDS011;10539;53.686;9.158;2023-04-24T04:35:59;6.30;;;5.07;;
20758;SDS011;10539;53.686;9.158;2023-04-24T04:38:25;5.90;;;4.97;;
20758;SDS011;10539;53.686;9.158;2023-04-24T04:40:55;6.03;;;5.30;;
20758;SDS011;10539;53.686;9.158;2023-04-24T04:43:24;5.53;;;5.03;;
20758;SDS011;10539;53.686;9.158;2023-04-24T04:45:50;6.73;;;5.10;;
20758;SDS011;10539;53.686;9.158;2023-04-24T04:48:17;5.30;;;4.80;;
20758;SDS011;10539;53.686;9.158;2023-04-24T04:50:44;6.87;;;5.73;;
20758;SDS011;10539;53.686;9.158;2023-04-24T04:53:09;5.70;;;5.10;;
20758;SDS011;10539;53.686;9.158;2023-04-24T04:55:36;6.13;;;5.53;;
20758;SDS011;10539;53.686;9.158;2023-04-24T04:58:02;5.63;;;5.13;;
20758;SDS011;10539;53.686;9.158;2023-04-24T05:00:27;6.17;;;5.30;;
20758;SDS011;10539;53.686;9.158;2023-04-24T05:02:54;9.07;;;5.27;;
20758;SDS011;10539;53.686;9.158;2023-04-24T05:05:19;6.10;;;5.10;;
20758;SDS011;10539;53.686;9.158;2023-04-24T05:07:45;6.63;;;4.73;;
20758;SDS011;10539;53.686;9.158;2023-04-24T05:10:11;5.40;;;4.90;;
20758;SDS011;10539;53.686;9.158;2023-04-24T05:12:37;5.10;;;4.60;;
20758;SDS011;10539;53.686;9.158;2023-04-24T05:15:03;5.83;;;4.70;;
20758;SDS011;10539;53.686;9.158;2023-04-24T05:17:29;5.33;;;4.80;;
20758;SDS011;10539;53.686;9.158;2023-04-24T05:19:54;5.20;;;4.60;;
20758;SDS011;10539;53.686;9.158;2023-04-24T05:22:20;7.23;;;4.67;;
20758;SDS011;10539;53.686;9.158;2023-04-24T05:24:47;5.70;;;5.10;;
20758;SDS011;10539;53.686;9.158;2023-04-24T05:27:13;5.90;;;5.00;;
20758;SDS011;10539;53.686;9.158;2023-04-24T05:29:39;6.00;;;5.00;;
20758;SDS011;10539;53.686;9.158;2023-04-24T05:32:05;7.73;;;5.00;;
20758;SDS011;10539;53.686;9.158;2023-04-24T05:34:31;6.53;;;4.80;;
20758;SDS011;10539;53.686;9.158;2023-04-24T05:36:57;5.00;;;4.30;;
20758;SDS011;10539;53.686;9.158;2023-04-24T05:39:23;4.63;;;4.00;;
20758;SDS011;10539;53.686;9.158;2023-04-24T05:41:50;4.37;;;3.93;;
20758;SDS011;10539;53.686;9.158;2023-04-24T05:44:16;5.27;;;3.90;;
20758;SDS011;10539;53.686;9.158;2023-04-24T05:46:42;4.83;;;4.33;;
20758;SDS011;10539;53.686;9.158;2023-04-24T05:49:08;4.90;;;3.40;;
20758;SDS011;10539;53.686;9.158;2023-04-24T05:51:34;5.13;;;3.73;;
20758;SDS011;10539;53.686;9.158;2023-04-24T05:54:00;5.30;;;3.83;;
20758;SDS011;10539;53.686;9.158;2023-04-24T05:56:26;5.23;;;3.50;;
20758;SDS011;10539;53.686;9.158;2023-04-24T05:58:52;4.00;;;3.40;;
20758;SDS011;10539;53.686;9.158;2023-04-24T06:01:18;4.60;;;3.50;;
20758;SDS011;10539;53.686;9.158;2023-04-24T06:03:44;3.70;;;3.30;;
20758;SDS011;10539;53.686;9.158;2023-04-24T06:06:10;4.73;;;3.70;;
20758;SDS011;10539;53.686;9.158;2023-04-24T06:08:36;4.43;;;3.57;;
20758;SDS011;10539;53.686;9.158;2023-04-24T06:11:01;5.20;;;3.70;;
20758;SDS011;10539;53.686;9.158;2023-04-24T06:13:27;6.10;;;3.83;;
20758;SDS011;10539;53.686;9.158;2023-04-24T06:15:53;6.30;;;3.53;;
20758;SDS011;10539;53.686;9.158;2023-04-24T06:18:19;5.20;;;3.43;;
20758;SDS011;10539;53.686;9.158;2023-04-24T06:20:45;5.93;;;3.53;;
20758;SDS011;10539;53.686;9.158;2023-04-24T06:23:11;11.27;;;4.00;;
20758;SDS011;10539;53.686;9.158;2023-04-24T06:25:37;5.60;;;3.10;;
20758;SDS011;10539;53.686;9.158;2023-04-24T06:28:03;6.17;;;3.50;;
20758;SDS011;10539;53.686;9.158;2023-04-24T06:30:29;4.23;;;3.73;;
20758;SDS011;10539;53.686;9.158;2023-04-24T06:32:55;4.60;;;3.67;;
20758;SDS011;10539;53.686;9.158;2023-04-24T06:35:21;5.07;;;3.60;;
20758;SDS011;10539;53.686;9.158;2023-04-24T06:37:47;4.83;;;3.43;;
20758;SDS011;10539;53.686;9.158;2023-04-24T06:40:14;6.57;;;3.53;;
20758;SDS011;10539;53.686;9.158;2023-04-24T06:42:39;7.57;;;3.60;;
20758;SDS011;10539;53.686;9.158;2023-04-24T06:45:05;7.23;;;3.90;;
20758;SDS011;10539;53.686;9.158;2023-04-24T06:47:31;3.87;;;3.07;;
20758;SDS011;10539;53.686;9.158;2023-04-24T06:49:57;4.67;;;3.70;;
20758;SDS011;10539;53.686;9.158;2023-04-24T06:52:23;5.70;;;3.83;;
20758;SDS011;10539;53.686;9.158;2023-04-24T06:54:49;5.83;;;4.40;;
20758;SDS011;10539;53.686;9.158;2023-04-24T06:57:14;7.33;;;4.03;;
20758;SDS011;10539;53.686;9.158;2023-04-24T06:59:41;7.90;;;4.23;;
20758;SDS011;10539;53.686;9.158;2023-04-24T07:02:07;5.53;;;3.70;;
20758;SDS011;10539;53.686;9.158;2023-04-24T07:04:33;5.20;;;3.77;;
20758;SDS011;10539;53.686;9.158;2023-04-24T07:06:59;4.93;;;3.73;;
20758;SDS011;10539;53.686;9.158;2023-04-24T07:09:25;6.67;;;3.87;;
20758;SDS011;10539;53.686;9.158;2023-04-24T07:11:51;5.60;;;3.83;;
20758;SDS011;10539;53.686;9.158;2023-04-24T07:14:18;6.93;;;4.10;;
20758;SDS011;10539;53.686;9.158;2023-04-24T07:16:44;4.60;;;3.77;;
20758;SDS011;10539;53.686;9.158;2023-04-24T07:19:11;4.80;;;3.80;;
20758;SDS011;10539;53.686;9.158;2023-04-24T07:21:37;5.77;;;4.20;;
20758;SDS011;10539;53.686;9.158;2023-04-24T07:24:02;6.97;;;3.77;;
20758;SDS011;10539;53.686;9.158;2023-04-24T07:26:29;5.17;;;3.80;;
20758;SDS011;10539;53.686;9.158;2023-04-24T07:28:55;5.63;;;3.80;;
20758;SDS011;10539;53.686;9.158;2023-04-24T07:31:21;8.07;;;4.60;;
20758;SDS011;10539;53.686;9.158;2023-04-24T07:33:48;4.87;;;4.00;;
20758;SDS011;10539;53.686;9.158;2023-04-24T07:36:14;5.77;;;3.97;;
20758;SDS011;10539;53.686;9.158;2023-04-24T07:38:44;5.03;;;3.53;;
20758;SDS011;10539;53.686;9.158;2023-04-24T07:41:10;5.20;;;4.10;;
20758;SDS011;10539;53.686;9.158;2023-04-24T07:43:36;4.87;;;3.90;;
20758;SDS011;10539;53.686;9.158;2023-04-24T07:46:02;5.53;;;4.17;;
20758;SDS011;10539;53.686;9.158;2023-04-24T07:48:28;5.30;;;3.97;;
20758;SDS011;10539;53.686;9.158;2023-04-24T07:50:54;5.50;;;4.00;;
20758;SDS011;10539;53.686;9.158;2023-04-24T07:53:20;4.17;;;3.67;;
20758;SDS011;10539;53.686;9.158;2023-04-24T07:55:45;7.13;;;4.33;;
20758;SDS011;10539;53.686;9.158;2023-04-24T07:58:11;5.43;;;4.17;;
20758;SDS011;10539;53.686;9.158;2023-04-24T08:00:37;5.90;;;4.13;;
20758;SDS011;10539;53.686;9.158;2023-04-24T08:03:03;6.13;;;4.30;;
20758;SDS011;10539;53.686;9.158;2023-04-24T08:05:29;8.60;;;4.10;;
20758;SDS011;10539;53.686;9.158;2023-04-24T08:07:55;6.03;;;4.27;;
20758;SDS011;10539;53.686;9.158;2023-04-24T08:10:24;9.93;;;4.40;;
20758;SDS011;10539;53.686;9.158;2023-04-24T08:12:50;8.67;;;4.00;;
20758;SDS011;10539;53.686;9.158;2023-04-24T08:15:16;7.03;;;4.50;;
20758;SDS011;10539;53.686;9.158;2023-04-24T08:17:42;7.23;;;4.63;;
20758;SDS011;10539;53.686;9.158;2023-04-24T08:20:08;5.77;;;4.80;;
20758;SDS011;10539;53.686;9.158;2023-04-24T08:22:39;7.33;;;4.80;;
20758;SDS011;10539;53.686;9.158;2023-04-24T08:25:06;7.97;;;4.20;;
20758;SDS011;10539;53.686;9.158;2023-04-24T08:27:32;6.83;;;4.53;;
20758;SDS011;10539;53.686;9.158;2023-04-24T08:29:58;5.83;;;4.30;;
20758;SDS011;10539;53.686;9.158;2023-04-24T08:32:26;8.27;;;5.07;;
20758;SDS011;10539;53.686;9.158;2023-04-24T08:34:55;7.43;;;4.90;;
20758;SDS011;10539;53.686;9.158;2023-04-24T08:37:22;8.13;;;4.93;;
20758;SDS011;10539;53.686;9.158;2023-04-24T08:39:49;8.73;;;4.60;;
20758;SDS011;10539;53.686;9.158;2023-04-24T08:42:15;6.57;;;4.60;;
20758;SDS011;10539;53.686;9.158;2023-04-24T08:44:42;9.20;;;5.07;;
20758;SDS011;10539;53.686;9.158;2023-04-24T08:47:10;6.73;;;4.47;;
20758;SDS011;10539;53.686;9.158;2023-04-24T08:49:36;5.90;;;4.63;;
20758;SDS011;10539;53.686;9.158;2023-04-24T08:52:04;6.53;;;4.97;;
20758;SDS011;10539;53.686;9.158;2023-04-24T08:54:30;6.37;;;4.90;;
20758;SDS011;10539;53.686;9.158;2023-04-24T08:57:00;6.63;;;4.53;;
20758;SDS011;10539;53.686;9.158;2023-04-24T08:59:28;10.20;;;5.13;;
20758;SDS011;10539;53.686;9.158;2023-04-24T09:01:55;7.53;;;4.77;;
20758;SDS011;10539;53.686;9.158;2023-04-24T09:04:22;7.77;;;4.93;;
20758;SDS011;10539;53.686;9.158;2023-04-24T09:06:56;7.20;;;4.90;;
20758;SDS011;10539;53.686;9.158;2023-04-24T09:09:23;5.20;;;4.30;;
20758;SDS011;10539;53.686;9.158;2023-04-24T09:11:52;7.97;;;5.53;;
20758;SDS011;10539;53.686;9.158;2023-04-24T09:14:20;9.13;;;4.90;;
20758;SDS011;10539;53.686;9.158;2023-04-24T09:16:48;7.00;;;4.97;;
20758;SDS011;10539;53.686;9.158;2023-04-24T09:19:14;8.50;;;4.60;;
20758;SDS011;10539;53.686;9.158;2023-04-24T09:21:40;6.30;;;4.87;;
20758;SDS011;10539;53.686;9.158;2023-04-24T09:24:14;8.10;;;5.30;;
20758;SDS011;10539;53.686;9.158;2023-04-24T09:26:43;7.60;;;5.07;;
20758;SDS011;10539;53.686;9.158;2023-04-24T09:29:13;7.33;;;5.17;;
20758;SDS011;10539;53.686;9.158;2023-04-24T09:31:43;7.23;;;5.50;;
20758;SDS011;10539;53.686;9.158;2023-04-24T09:34:10;6.77;;;5.10;;
20758;SDS011;10539;53.686;9.158;2023-04-24T09:39:04;7.27;;;5.20;;
20758;SDS011;10539;53.686;9.158;2023-04-24T09:41:32;6.97;;;4.60;;
20758;SDS011;10539;53.686;9.158;2023-04-24T09:44:19;8.00;;;5.03;;
20758;SDS011;10539;53.686;9.158;2023-04-24T09:46:54;7.43;;;4.93;;
20758;SDS011;10539;53.686;9.158;2023-04-24T09:49:27;9.70;;;5.17;;
20758;SDS011;10539;53.686;9.158;2023-04-24T09:52:04;7.93;;;4.87;;
20758;SDS011;10539;53.686;9.158;2023-04-24T09:54:31;10.57;;;5.77;;
20758;SDS011;10539;53.686;9.158;2023-04-24T09:56:57;8.37;;;5.23;;
20758;SDS011;10539;53.686;9.158;2023-04-24T09:59:22;6.20;;;4.97;;
20758;SDS011;10539;53.686;9.158;2023-04-24T10:01:48;8.80;;;5.43;;
20758;SDS011;10539;53.686;9.158;2023-04-24T10:06:43;7.27;;;5.50;;
20758;SDS011;10539;53.686;9.158;2023-04-24T10:09:09;9.07;;;5.63;;
20758;SDS011;10539;53.686;9.158;2023-04-24T10:11:38;9.17;;;5.70;;
20758;SDS011;10539;53.686;9.158;2023-04-24T10:14:16;7.27;;;5.13;;
20758;SDS011;10539;53.686;9.158;2023-04-24T10:16:44;10.50;;;5.73;;
20758;SDS011;10539;53.686;9.158;2023-04-24T10:19:11;7.23;;;5.27;;
20758;SDS011;10539;53.686;9.158;2023-04-24T10:21:38;8.00;;;5.17;;
20758;SDS011;10539;53.686;9.158;2023-04-24T10:24:10;8.83;;;5.40;;
20758;SDS011;10539;53.686;9.158;2023-04-24T10:26:37;7.40;;;5.33;;
20758;SDS011;10539;53.686;9.158;2023-04-24T10:29:05;10.60;;;5.50;;
20758;SDS011;10539;53.686;9.158;2023-04-24T10:31:35;7.07;;;5.77;;
20758;SDS011;10539;53.686;9.158;2023-04-24T10:34:02;7.77;;;5.93;;
20758;SDS011;10539;53.686;9.158;2023-04-24T10:36:29;11.07;;;6.10;;
20758;SDS011;10539;53.686;9.158;2023-04-24T10:38:58;8.20;;;6.20;;
20758;SDS011;10539;53.686;9.158;2023-04-24T10:41:27;7.67;;;5.53;;
20758;SDS011;10539;53.686;9.158;2023-04-24T10:46:31;6.80;;;5.70;;
20758;SDS011;10539;53.686;9.158;2023-04-24T10:48:56;10.53;;;6.27;;
20758;SDS011;10539;53.686;9.158;2023-04-24T10:51:23;8.40;;;6.50;;
20758;SDS011;10539;53.686;9.158;2023-04-24T10:54:23;11.13;;;6.40;;
20758;SDS011;10539;53.686;9.158;2023-04-24T10:56:51;8.17;;;5.83;;
20758;SDS011;10539;53.686;9.158;2023-04-24T10:59:24;12.37;;;6.10;;
20758;SDS011;10539;53.686;9.158;2023-04-24T11:01:54;8.93;;;5.73;;
20758;SDS011;10539;53.686;9.158;2023-04-24T11:04:30;9.87;;;6.37;;
20758;SDS011;10539;53.686;9.158;2023-04-24T11:06:56;7.50;;;5.87;;
20758;SDS011;10539;53.686;9.158;2023-04-24T11:09:22;7.57;;;5.97;;
20758;SDS011;10539;53.686;9.158;2023-04-24T11:11:53;7.50;;;5.60;;
20758;SDS011;10539;53.686;9.158;2023-04-24T11:17:28;11.00;;;6.27;;
20758;SDS011;10539;53.686;9.158;2023-04-24T11:20:08;8.30;;;5.90;;
20758;SDS011;10539;53.686;9.158;2023-04-24T11:22:37;7.93;;;5.60;;
20758;SDS011;10539;53.686;9.158;2023-04-24T11:25:05;7.63;;;5.70;;
20758;SDS011;10539;53.686;9.158;2023-04-24T11:27:39;6.57;;;5.30;;
20758;SDS011;10539;53.686;9.158;2023-04-24T11:30:06;7.70;;;5.53;;
20758;SDS011;10539;53.686;9.158;2023-04-24T11:40:08;7.27;;;5.50;;
20758;SDS011;10539;53.686;9.158;2023-04-24T11:42:39;8.50;;;5.70;;
20758;SDS011;10539;53.686;9.158;2023-04-24T11:45:26;10.50;;;6.57;;
20758;SDS011;10539;53.686;9.158;2023-04-24T11:47:55;9.57;;;6.43;;
20758;SDS011;10539;53.686;9.158;2023-04-24T11:50:22;8.47;;;6.77;;
20758;SDS011;10539;53.686;9.158;2023-04-24T11:52:50;9.73;;;7.27;;
20758;SDS011;10539;53.686;9.158;2023-04-24T11:57:47;17.30;;;12.37;;
20758;SDS011;10539;53.686;9.158;2023-04-24T12:00:15;18.40;;;13.03;;
20758;SDS011;10539;53.686;9.158;2023-04-24T12:02:45;21.33;;;13.20;;
20758;SDS011;10539;53.686;9.158;2023-04-24T12:07:47;15.90;;;11.70;;
20758;SDS011;10539;53.686;9.158;2023-04-24T12:10:13;19.93;;;11.27;;
20758;SDS011;10539;53.686;9.158;2023-04-24T12:12:39;18.03;;;12.13;;
20758;SDS011;10539;53.686;9.158;2023-04-24T12:15:08;18.37;;;11.57;;
20758;SDS011;10539;53.686;9.158;2023-04-24T12:17:35;15.27;;;10.70;;
20758;SDS011;10539;53.686;9.158;2023-04-24T12:20:05;22.83;;;12.90;;
20758;SDS011;10539;53.686;9.158;2023-04-24T12:22:46;16.87;;;11.57;;
20758;SDS011;10539;53.686;9.158;2023-04-24T12:25:17;12.13;;;9.00;;
20758;SDS011;10539;53.686;9.158;2023-04-24T12:27:44;12.97;;;7.90;;
20758;SDS011;10539;53.686;9.158;2023-04-24T12:30:12;15.00;;;9.20;;
20758;SDS011;10539;53.686;9.158;2023-04-24T12:32:43;12.27;;;8.80;;
20758;SDS011;10539;53.686;9.158;2023-04-24T12:35:10;10.93;;;8.80;;
20758;SDS011;10539;53.686;9.158;2023-04-24T12:37:35;14.13;;;9.17;;
20758;SDS011;10539;53.686;9.158;2023-04-24T12:40:06;11.30;;;8.90;;
20758;SDS011;10539;53.686;9.158;2023-04-24T12:42:33;14.83;;;9.53;;
20758;SDS011;10539;53.686;9.158;2023-04-24T12:45:04;12.90;;;9.37;;
20758;SDS011;10539;53.686;9.158;2023-04-24T12:47:31;13.50;;;9.47;;
20758;SDS011;10539;53.686;9.158;2023-04-24T12:49:58;12.37;;;8.57;;
20758;SDS011;10539;53.686;9.158;2023-04-24T12:52:24;12.17;;;8.73;;
20758;SDS011;10539;53.686;9.158;2023-04-24T12:54:54;10.93;;;7.70;;
20758;SDS011;10539;53.686;9.158;2023-04-24T12:57:25;11.40;;;8.57;;
20758;SDS011;10539;53.686;9.158;2023-04-24T12:59:54;10.53;;;7.97;;
20758;SDS011;10539;53.686;9.158;2023-04-24T13:02:21;10.43;;;7.87;;
20758;SDS011;10539;53.686;9.158;2023-04-24T13:04:48;10.00;;;7.97;;
20758;SDS011;10539;53.686;9.158;2023-04-24T13:07:14;11.53;;;8.07;;
20758;SDS011;10539;53.686;9.158;2023-04-24T13:09:41;12.57;;;7.63;;
20758;SDS011;10539;53.686;9.158;2023-04-24T13:12:08;8.57;;;6.53;;
20758;SDS011;10539;53.686;9.158;2023-04-24T13:14:34;7.43;;;5.90;;
20758;SDS011;10539;53.686;9.158;2023-04-24T13:17:00;9.03;;;6.03;;
20758;SDS011;10539;53.686;9.158;2023-04-24T13:19:26;6.97;;;4.60;;
20758;SDS011;10539;53.686;9.158;2023-04-24T13:21:53;6.43;;;4.60;;
20758;SDS011;10539;53.686;9.158;2023-04-24T13:24:20;7.20;;;4.73;;
20758;SDS011;10539;53.686;9.158;2023-04-24T13:26:50;9.70;;;5.60;;
20758;SDS011;10539;53.686;9.158;2023-04-24T13:29:16;8.50;;;6.20;;
20758;SDS011;10539;53.686;9.158;2023-04-24T13:31:42;7.33;;;5.27;;
20758;SDS011;10539;53.686;9.158;2023-04-24T13:34:08;7.17;;;5.07;;
20758;SDS011;10539;53.686;9.158;2023-04-24T13:36:33;5.60;;;3.30;;
20758;SDS011;10539;53.686;9.158;2023-04-24T13:39:00;6.30;;;3.43;;
20758;SDS011;10539;53.686;9.158;2023-04-24T13:41:26;4.83;;;3.47;;
20758;SDS011;10539;53.686;9.158;2023-04-24T13:43:51;8.33;;;2.63;;
20758;SDS011;10539;53.686;9.158;2023-04-24T13:46:17;5.07;;;3.07;;
20758;SDS011;10539;53.686;9.158;2023-04-24T13:48:43;6.33;;;3.47;;
20758;SDS011;10539;53.686;9.158;2023-04-24T13:51:09;6.03;;;3.57;;
20758;SDS011;10539;53.686;9.158;2023-04-24T13:53:34;7.53;;;4.33;;
20758;SDS011;10539;53.686;9.158;2023-04-24T13:56:03;7.30;;;4.87;;
20758;SDS011;10539;53.686;9.158;2023-04-24T13:58:30;8.33;;;4.20;;
20758;SDS011;10539;53.686;9.158;2023-04-24T14:00:56;7.40;;;4.63;;
20758;SDS011;10539;53.686;9.158;2023-04-24T14:03:21;7.57;;;4.70;;
20758;SDS011;10539;53.686;9.158;2023-04-24T14:05:47;9.53;;;5.20;;
20758;SDS011;10539;53.686;9.158;2023-04-24T14:08:13;10.93;;;5.47;;
20758;SDS011;10539;53.686;9.158;2023-04-24T14:10:38;9.17;;;5.40;;
20758;SDS011;10539;53.686;9.158;2023-04-24T14:13:04;10.03;;;6.07;;
20758;SDS011;10539;53.686;9.158;2023-04-24T14:15:31;7.50;;;5.30;;
20758;SDS011;10539;53.686;9.158;2023-04-24T14:17:57;7.37;;;5.37;;
20758;SDS011;10539;53.686;9.158;2023-04-24T14:20:23;9.30;;;6.00;;
20758;SDS011;10539;53.686;9.158;2023-04-24T14:22:48;8.80;;;5.67;;
20758;SDS011;10539;53.686;9.158;2023-04-24T14:25:14;15.47;;;6.53;;
20758;SDS011;10539;53.686;9.158;2023-04-24T14:27:40;10.47;;;6.90;;
20758;SDS011;10539;53.686;9.158;2023-04-24T14:30:06;14.17;;;7.40;;
20758;SDS011;10539;53.686;9.158;2023-04-24T14:32:32;9.63;;;6.33;;
20758;SDS011;10539;53.686;9.158;2023-04-24T14:34:58;14.60;;;8.53;;
20758;SDS011;10539;53.686;9.158;2023-04-24T14:37:24;13.37;;;8.10;;
20758;SDS011;10539;53.686;9.158;2023-04-24T14:39:50;13.00;;;8.13;;
20758;SDS011;10539;53.686;9.158;2023-04-24T14:42:15;12.53;;;7.77;;
20758;SDS011;10539;53.686;9.158;2023-04-24T14:44:42;13.17;;;7.63;;
20758;SDS011;10539;53.686;9.158;2023-04-24T14:47:08;16.90;;;8.20;;
20758;SDS011;10539;53.686;9.158;2023-04-24T14:49:33;14.20;;;7.80;;
20758;SDS011;10539;53.686;9.158;2023-04-24T14:51:59;14.03;;;8.50;;
20758;SDS011;10539;53.686;9.158;2023-04-24T14:54:25;16.27;;;8.93;;
20758;SDS011;10539;53.686;9.158;2023-04-24T14:56:51;18.07;;;8.73;;
20758;SDS011;10539;53.686;9.158;2023-04-24T14:59:17;16.13;;;8.40;;
20758;SDS011;10539;53.686;9.158;2023-04-24T15:01:42;21.90;;;8.70;;
20758;SDS011;10539;53.686;9.158;2023-04-24T15:04:09;14.47;;;8.33;;
20758;SDS011;10539;53.686;9.158;2023-04-24T15:06:35;18.87;;;8.50;;